createdAt,value
2023-01-27T00:02:32.932Z,4.47
2023-01-27T00:06:34.689Z,4.18
2023-01-27T00:10:36.508Z,5.00
2023-01-27T00:14:38.220Z,4.18
2023-01-27T00:18:39.921Z,4.30
2023-01-27T00:23:00.113Z,4.32
2023-01-27T00:27:02.725Z,4.25
2023-01-27T00:31:06.117Z,4.78
2023-01-27T00:35:08.201Z,4.25
2023-01-27T00:39:11.933Z,4.53
2023-01-27T00:43:13.654Z,4.95
2023-01-27T00:47:15.296Z,4.90
2023-01-27T00:51:17.525Z,5.30
2023-01-27T00:55:20.479Z,4.87
2023-01-27T00:59:22.995Z,5.10
2023-01-27T01:03:25.228Z,7.90
2023-01-27T01:07:26.952Z,6.70
2023-01-27T01:11:28.722Z,7.55
2023-01-27T01:15:30.478Z,6.62
2023-01-27T01:19:32.202Z,6.60
2023-01-27T01:23:37.485Z,6.30
2023-01-27T01:27:39.204Z,6.43
2023-01-27T01:31:41.311Z,8.93
2023-01-27T01:35:43.383Z,7.20
2023-01-27T01:39:45.081Z,7.90
2023-01-27T01:43:47.377Z,7.90
2023-01-27T01:47:49.094Z,8.05
2023-01-27T01:51:56.155Z,8.02
2023-01-27T02:00:09.571Z,8.82
2023-01-27T02:04:21.145Z,9.27
2023-01-27T02:08:55.517Z,10.07
2023-01-27T02:12:57.240Z,9.50
2023-01-27T02:16:59.059Z,10.60
2023-01-27T02:21:01.661Z,10.45
2023-01-27T02:25:26.560Z,10.15
2023-01-27T02:29:28.787Z,14.18
2023-01-27T02:33:30.609Z,13.02
2023-01-27T02:37:33.194Z,11.12
2023-01-27T02:41:42.740Z,9.95
2023-01-27T02:45:46.967Z,10.25
2023-01-27T02:49:49.527Z,9.90
2023-01-27T02:53:51.271Z,9.60
2023-01-27T02:57:52.951Z,9.85
2023-01-27T03:01:54.632Z,8.68
2023-01-27T03:05:56.394Z,8.45
2023-01-27T03:09:58.167Z,8.13
2023-01-27T03:13:59.935Z,6.90
2023-01-27T03:18:10.270Z,7.18
2023-01-27T03:22:11.967Z,6.35
2023-01-27T03:26:13.700Z,7.05
2023-01-27T03:30:15.595Z,7.57
2023-01-27T03:34:17.252Z,7.28
2023-01-27T03:38:37.545Z,7.80
2023-01-27T03:42:58.076Z,7.57
2023-01-27T03:46:59.951Z,7.97
2023-01-27T03:51:05.279Z,6.78
2023-01-27T03:55:09.165Z,7.03
2023-01-27T03:59:10.960Z,7.78
2023-01-27T04:03:31.220Z,7.22
2023-01-27T04:07:36.712Z,7.28
2023-01-27T04:11:57.762Z,6.62
2023-01-27T04:15:59.519Z,6.97
2023-01-27T04:20:01.256Z,7.70
2023-01-27T04:24:04.216Z,8.18
2023-01-27T04:28:06.414Z,9.02
2023-01-27T04:32:10.612Z,8.25
2023-01-27T04:36:16.239Z,9.35
2023-01-27T04:40:18.024Z,10.05
2023-01-27T04:44:22.950Z,10.50
2023-01-27T04:48:24.649Z,9.30
2023-01-27T04:52:26.381Z,10.10
2023-01-27T04:56:36.679Z,10.10
2023-01-27T05:00:38.363Z,9.55
2023-01-27T05:04:40.069Z,10.02
2023-01-27T05:08:41.973Z,9.73
2023-01-27T05:12:43.659Z,10.55
2023-01-27T05:16:45.710Z,10.63
2023-01-27T05:20:47.465Z,9.95
2023-01-27T05:24:49.223Z,10.43
2023-01-27T05:28:52.152Z,10.57
2023-01-27T05:32:53.861Z,10.35
2023-01-27T05:36:55.571Z,10.73
2023-01-27T05:41:03.902Z,10.60
2023-01-27T05:45:06.664Z,11.12
2023-01-27T05:49:09.321Z,11.25
2023-01-27T05:53:11.076Z,10.00
2023-01-27T05:57:12.778Z,9.65
2023-01-27T06:01:17.226Z,9.70
2023-01-27T06:05:18.929Z,10.13
2023-01-27T06:09:20.604Z,9.98
2023-01-27T06:13:24.054Z,9.32
2023-01-27T06:17:26.250Z,9.55
2023-01-27T06:21:28.258Z,11.05
2023-01-27T06:25:30.289Z,10.32
2023-01-27T06:29:31.903Z,9.95
2023-01-27T06:33:34.156Z,11.05
2023-01-27T06:37:35.932Z,9.80
2023-01-27T06:41:38.476Z,9.15
2023-01-27T06:45:40.561Z,10.93
2023-01-27T06:49:42.222Z,10.13
2023-01-27T06:53:43.883Z,9.30
2023-01-27T06:57:48.329Z,9.93
2023-01-27T07:01:50.000Z,11.90
2023-01-27T07:05:52.959Z,10.35
2023-01-27T07:09:54.593Z,10.07
2023-01-27T07:13:56.238Z,9.48
2023-01-27T07:18:02.153Z,8.88
2023-01-27T07:22:03.872Z,9.23
2023-01-27T07:26:12.500Z,9.23
2023-01-27T07:30:21.190Z,9.35
2023-01-27T07:34:22.836Z,9.35
2023-01-27T07:38:24.542Z,10.23
2023-01-27T07:42:26.224Z,10.32
2023-01-27T07:46:27.851Z,11.30
2023-01-27T07:50:29.933Z,9.50
2023-01-27T07:54:31.615Z,9.90
2023-01-27T07:58:33.274Z,9.40
2023-01-27T08:02:34.929Z,8.05
2023-01-27T08:06:39.769Z,9.63
2023-01-27T08:10:41.725Z,9.20
2023-01-27T08:14:43.416Z,9.95
2023-01-27T08:18:45.092Z,10.85
2023-01-27T08:22:46.764Z,8.43
2023-01-27T08:26:48.414Z,8.50
2023-01-27T08:30:53.435Z,8.45
2023-01-27T08:34:55.548Z,8.73
2023-01-27T08:38:57.247Z,8.93
2023-01-27T08:43:00.102Z,8.73
2023-01-27T08:47:01.804Z,9.30
2023-01-27T08:51:04.404Z,13.32
2023-01-27T08:55:06.372Z,9.95
2023-01-27T08:59:08.042Z,12.77
2023-01-27T09:03:09.875Z,11.55
2023-01-27T09:07:11.821Z,10.35
2023-01-27T09:11:16.611Z,9.10
2023-01-27T09:15:18.383Z,9.73
2023-01-27T09:19:19.988Z,9.13
2023-01-27T09:23:21.617Z,9.00
2023-01-27T09:27:38.001Z,10.48
2023-01-27T09:31:40.529Z,9.75
2023-01-27T09:35:46.687Z,8.63
2023-01-27T09:39:55.656Z,10.52
2023-01-27T09:44:14.869Z,9.68
2023-01-27T09:48:33.724Z,10.25
2023-01-27T09:53:13.754Z,9.77
2023-01-27T09:57:36.556Z,10.05
2023-01-27T10:02:08.350Z,10.57
2023-01-27T10:06:44.112Z,10.15
2023-01-27T10:11:04.415Z,9.40
2023-01-27T10:15:21.082Z,9.82
2023-01-27T10:19:28.761Z,9.07
2023-01-27T10:23:34.934Z,9.98
2023-01-27T10:27:37.677Z,9.20
2023-01-27T10:32:00.474Z,8.73
2023-01-27T10:36:17.129Z,8.48
2023-01-27T10:40:41.043Z,8.60
2023-01-27T10:45:04.644Z,9.07
2023-01-27T10:49:12.071Z,8.85
2023-01-27T10:53:21.494Z,9.32
2023-01-27T10:57:56.675Z,8.80
2023-01-27T11:02:07.030Z,8.48
2023-01-27T11:06:19.190Z,9.25
2023-01-27T11:10:22.434Z,9.75
2023-01-27T11:14:30.852Z,9.10
2023-01-27T11:18:37.490Z,9.25
2023-01-27T11:23:16.954Z,9.07
2023-01-27T11:27:27.463Z,9.10
2023-01-27T11:31:38.260Z,10.13
2023-01-27T11:35:40.288Z,9.77
2023-01-27T11:39:42.045Z,9.77
2023-01-27T11:43:43.853Z,9.32
2023-01-27T11:47:48.996Z,9.40
2023-01-27T11:51:50.768Z,8.95
2023-01-27T11:56:06.215Z,9.57
2023-01-27T12:00:24.638Z,9.25
2023-01-27T12:04:48.998Z,8.57
2023-01-27T12:08:50.776Z,8.93
2023-01-27T12:12:53.161Z,9.05
2023-01-27T12:16:55.004Z,8.60
2023-01-27T12:21:02.064Z,9.05
2023-01-27T12:29:19.060Z,8.10
2023-01-27T12:33:44.327Z,8.13
2023-01-27T12:37:47.728Z,9.00
2023-01-27T12:41:50.352Z,9.27
2023-01-27T12:46:12.452Z,7.65
2023-01-27T12:50:32.237Z,7.30
2023-01-27T12:54:35.105Z,7.90
2023-01-27T12:58:43.222Z,9.02
2023-01-27T13:02:47.027Z,6.00
2023-01-27T13:07:08.184Z,5.95
2023-01-27T13:11:10.112Z,6.12
2023-01-27T13:15:28.517Z,5.53
2023-01-27T13:19:43.013Z,5.47
2023-01-27T13:23:48.075Z,5.25
2023-01-27T13:27:53.661Z,5.53
2023-01-27T13:32:07.292Z,4.90
2023-01-27T13:36:21.404Z,4.50
2023-01-27T13:40:44.523Z,4.00
2023-01-27T13:44:58.843Z,4.43
2023-01-27T13:49:30.407Z,4.47
2023-01-27T13:53:32.613Z,4.68
2023-01-27T13:57:54.677Z,5.20
2023-01-27T14:02:25.832Z,4.93
2023-01-27T14:07:05.262Z,4.70
2023-01-27T14:11:40.131Z,5.82
2023-01-27T14:16:02.409Z,8.23
2023-01-27T14:20:16.675Z,4.55
2023-01-27T14:24:40.101Z,4.10
2023-01-27T14:29:08.102Z,3.60
2023-01-27T14:33:43.062Z,2.35
2023-01-27T14:38:13.265Z,2.20
2023-01-27T14:46:35.258Z,2.42
2023-01-27T14:50:52.066Z,2.42
2023-01-27T14:55:16.937Z,2.83
2023-01-27T14:59:41.335Z,2.75
2023-01-27T15:04:07.123Z,2.97
2023-01-27T15:08:57.023Z,2.67
2023-01-27T15:12:58.699Z,3.15
2023-01-27T15:17:11.291Z,2.75
2023-01-27T15:21:15.953Z,2.70
2023-01-27T15:25:19.635Z,2.45
2023-01-27T15:29:27.416Z,3.22
2023-01-27T15:33:51.345Z,3.30
2023-01-27T15:38:05.472Z,3.37
2023-01-27T15:42:07.193Z,3.08
2023-01-27T15:46:25.533Z,3.75
2023-01-27T15:50:30.906Z,3.45
2023-01-27T15:54:34.467Z,3.33
2023-01-27T15:58:43.806Z,3.75
2023-01-27T16:02:50.821Z,3.72
2023-01-27T16:11:30.066Z,4.20
2023-01-27T16:15:33.209Z,3.95
2023-01-27T16:19:44.268Z,4.55
2023-01-27T16:23:58.190Z,4.43
2023-01-27T16:28:24.375Z,4.30
2023-01-27T16:32:37.662Z,4.07
2023-01-27T16:36:39.387Z,4.57
2023-01-27T16:40:47.022Z,4.35
2023-01-27T16:44:51.295Z,4.15
2023-01-27T16:48:53.508Z,3.87
2023-01-27T16:52:55.343Z,4.00
2023-01-27T16:56:58.165Z,3.90
2023-01-27T17:01:01.258Z,4.10
2023-01-27T17:05:15.488Z,3.65
2023-01-27T17:09:31.582Z,3.72
2023-01-27T17:13:44.975Z,3.58
2023-01-27T17:17:49.001Z,3.85
2023-01-27T17:21:54.453Z,3.15
2023-01-27T17:25:56.725Z,3.55
2023-01-27T17:30:26.372Z,3.47
2023-01-27T17:34:28.327Z,3.87
2023-01-27T17:38:46.337Z,3.58
2023-01-27T17:42:49.325Z,3.92
2023-01-27T17:46:52.148Z,4.05
2023-01-27T17:50:53.851Z,4.20
2023-01-27T17:54:55.840Z,4.15
2023-01-27T17:59:05.004Z,3.95
2023-01-27T18:03:18.239Z,4.75
2023-01-27T18:07:19.991Z,4.87
2023-01-27T18:11:31.674Z,5.65
2023-01-27T18:15:47.801Z,4.62
2023-01-27T18:19:51.557Z,5.18
2023-01-27T18:23:56.344Z,5.57
2023-01-27T18:27:59.892Z,5.87
2023-01-27T18:32:29.719Z,5.30
2023-01-27T18:36:35.587Z,6.25
2023-01-27T18:40:37.450Z,6.25
2023-01-27T18:44:39.079Z,5.57
2023-01-27T18:48:40.759Z,5.78
2023-01-27T18:52:43.126Z,5.80
2023-01-27T18:56:44.763Z,6.03
2023-01-27T19:00:54.710Z,5.60
2023-01-27T19:04:56.422Z,5.28
2023-01-27T19:08:58.094Z,5.12
2023-01-27T19:13:01.266Z,5.32
2023-01-27T19:17:09.994Z,5.00
2023-01-27T19:21:14.477Z,5.25
2023-01-27T19:25:16.448Z,5.53
2023-01-27T19:29:18.162Z,5.30
2023-01-27T19:33:22.601Z,6.10
2023-01-27T19:37:24.446Z,5.80
2023-01-27T19:41:26.082Z,5.75
2023-01-27T19:45:28.272Z,5.65
2023-01-27T19:49:30.232Z,6.07
2023-01-27T19:53:32.344Z,5.32
2023-01-27T19:57:35.552Z,5.15
2023-01-27T20:01:37.278Z,4.87
2023-01-27T20:05:38.935Z,4.95
2023-01-27T20:09:40.621Z,4.43
2023-01-27T20:13:42.302Z,4.40
2023-01-27T20:17:44.231Z,4.20
2023-01-27T20:21:46.397Z,4.12
2023-01-27T20:25:48.081Z,3.58
2023-01-27T20:29:49.708Z,4.22
2023-01-27T20:33:52.289Z,4.00
2023-01-27T20:37:54.460Z,4.12
2023-01-27T20:41:56.067Z,4.05
2023-01-27T20:46:05.259Z,4.10
2023-01-27T20:50:09.558Z,4.10
2023-01-27T20:54:12.314Z,4.40
2023-01-27T20:58:13.921Z,4.15
2023-01-27T21:02:16.950Z,5.22
2023-01-27T21:06:19.817Z,5.07
2023-01-27T21:10:21.580Z,5.87
2023-01-27T21:14:23.480Z,6.50
2023-01-27T21:18:25.475Z,6.12
2023-01-27T21:22:27.125Z,5.47
2023-01-27T21:26:28.757Z,5.70
2023-01-27T21:30:30.429Z,6.57
2023-01-27T21:34:32.124Z,5.47
2023-01-27T21:38:33.851Z,5.37
2023-01-27T21:42:54.276Z,5.50
2023-01-27T21:46:55.969Z,5.68
2023-01-27T21:50:57.642Z,6.20
2023-01-27T21:55:01.188Z,6.12
2023-01-27T21:59:02.951Z,5.87
2023-01-27T22:03:04.697Z,6.80
2023-01-27T22:07:06.906Z,6.40
2023-01-27T22:11:12.497Z,6.00
2023-01-27T22:15:16.041Z,6.05
2023-01-27T22:19:17.964Z,6.85
2023-01-27T22:23:20.389Z,7.65
2023-01-27T22:27:22.107Z,8.38
2023-01-27T22:31:23.836Z,8.00
2023-01-27T22:35:25.836Z,8.63
2023-01-27T22:39:27.550Z,8.35
2023-01-27T22:43:29.296Z,8.82
2023-01-27T22:47:30.926Z,8.48
2023-01-27T22:51:32.859Z,9.32
2023-01-27T22:55:34.544Z,9.15
2023-01-27T22:59:36.257Z,10.05
2023-01-27T23:03:38.119Z,9.68
2023-01-27T23:07:39.789Z,9.18
2023-01-27T23:11:41.426Z,9.77
2023-01-27T23:15:43.093Z,8.73
2023-01-27T23:19:44.761Z,8.50
2023-01-27T23:23:46.545Z,6.60
2023-01-27T23:27:48.254Z,6.35
2023-01-27T23:31:50.057Z,6.62
2023-01-27T23:35:57.829Z,7.25
2023-01-27T23:39:59.490Z,8.75
2023-01-27T23:44:01.203Z,9.32
2023-01-27T23:48:03.026Z,9.27
2023-01-27T23:52:05.022Z,9.20
2023-01-27T23:56:07.662Z,9.75
